Bryan, Texas
Current Conditions -  °F | °C
As of 10:55 PM on Wednesday 22 Oct 2014 (Local Time) from KCFD Reporting Station
Clear Clear  
Wind Chill: 67°   Ceiling: Unl
Heat Index: 67°   Visibility: 10mi
Dew Point: 58°   Wind: 3mph
Humidity: 72%   Direction: 50°NE
Pressure: 30.12"   Gusts: NA
Location:  30.67°N, 96.37°W
Report Text: KCFD 230355Z AUTO 05003KT 10SM CLR 19/14 A3012 RMK AO2 T01930142
Loading
Personal Weather Stations






























Interactive Weather Map
Tropical Storm Tracking
New forecast layout! Learn more

10-Day Weather Forecast

Advertisements
Track Severe Weather on mobile